sensor_id;sensor_type;location;lat;lon;timestamp;P1;durP1;ratioP1;P2;durP2;ratioP2
80576;SDS011;69937;52.420;10.538;2024-03-22T00:01:55;9.02;;;5.70;;
80576;SDS011;69937;52.420;10.538;2024-03-22T00:06:56;12.98;;;6.35;;
80576;SDS011;69937;52.420;10.538;2024-03-22T00:11:57;8.55;;;6.18;;
80576;SDS011;69937;52.420;10.538;2024-03-22T00:16:58;9.32;;;6.18;;
80576;SDS011;69937;52.420;10.538;2024-03-22T00:21:58;12.43;;;6.72;;
80576;SDS011;69937;52.420;10.538;2024-03-22T00:26:59;10.40;;;7.82;;
80576;SDS011;69937;52.420;10.538;2024-03-22T00:32:00;11.68;;;7.80;;
80576;SDS011;69937;52.420;10.538;2024-03-22T00:37:00;11.75;;;7.60;;
80576;SDS011;69937;52.420;10.538;2024-03-22T00:42:01;9.88;;;7.53;;
80576;SDS011;69937;52.420;10.538;2024-03-22T00:47:02;8.82;;;7.57;;
80576;SDS011;69937;52.420;10.538;2024-03-22T00:52:03;13.98;;;7.40;;
80576;SDS011;69937;52.420;10.538;2024-03-22T00:57:04;11.52;;;7.18;;
80576;SDS011;69937;52.420;10.538;2024-03-22T01:02:04;15.32;;;8.05;;
80576;SDS011;69937;52.420;10.538;2024-03-22T01:07:05;11.88;;;8.05;;
80576;SDS011;69937;52.420;10.538;2024-03-22T01:12:05;10.82;;;7.57;;
80576;SDS011;69937;52.420;10.538;2024-03-22T01:17:06;19.75;;;10.32;;
80576;SDS011;69937;52.420;10.538;2024-03-22T01:22:07;15.43;;;8.90;;
80576;SDS011;69937;52.420;10.538;2024-03-22T01:27:07;14.55;;;8.75;;
80576;SDS011;69937;52.420;10.538;2024-03-22T01:32:08;15.82;;;9.60;;
80576;SDS011;69937;52.420;10.538;2024-03-22T01:37:08;19.25;;;9.73;;
80576;SDS011;69937;52.420;10.538;2024-03-22T01:42:09;17.25;;;10.60;;
80576;SDS011;69937;52.420;10.538;2024-03-22T01:47:10;18.25;;;10.48;;
80576;SDS011;69937;52.420;10.538;2024-03-22T01:52:11;18.02;;;10.10;;
80576;SDS011;69937;52.420;10.538;2024-03-22T01:57:12;21.70;;;11.85;;
80576;SDS011;69937;52.420;10.538;2024-03-22T02:02:12;20.88;;;11.55;;
80576;SDS011;69937;52.420;10.538;2024-03-22T02:07:13;19.77;;;12.40;;
80576;SDS011;69937;52.420;10.538;2024-03-22T02:12:13;22.35;;;12.80;;
80576;SDS011;69937;52.420;10.538;2024-03-22T02:17:15;23.42;;;12.82;;
80576;SDS011;69937;52.420;10.538;2024-03-22T02:22:16;23.50;;;14.07;;
80576;SDS011;69937;52.420;10.538;2024-03-22T02:27:17;22.02;;;11.93;;
80576;SDS011;69937;52.420;10.538;2024-03-22T02:32:17;25.13;;;13.38;;
80576;SDS011;69937;52.420;10.538;2024-03-22T02:37:18;28.90;;;13.27;;
80576;SDS011;69937;52.420;10.538;2024-03-22T02:42:18;26.45;;;13.80;;
80576;SDS011;69937;52.420;10.538;2024-03-22T02:47:19;31.35;;;13.73;;
80576;SDS011;69937;52.420;10.538;2024-03-22T02:52:20;25.70;;;12.85;;
80576;SDS011;69937;52.420;10.538;2024-03-22T02:57:20;28.63;;;15.52;;
80576;SDS011;69937;52.420;10.538;2024-03-22T03:02:21;30.40;;;15.65;;
80576;SDS011;69937;52.420;10.538;2024-03-22T03:07:22;29.55;;;15.02;;
80576;SDS011;69937;52.420;10.538;2024-03-22T03:12:22;22.42;;;14.27;;
80576;SDS011;69937;52.420;10.538;2024-03-22T03:17:23;26.10;;;13.95;;
80576;SDS011;69937;52.420;10.538;2024-03-22T03:22:23;24.98;;;14.52;;
80576;SDS011;69937;52.420;10.538;2024-03-22T03:27:24;24.85;;;13.15;;
80576;SDS011;69937;52.420;10.538;2024-03-22T03:32:25;29.85;;;15.07;;
80576;SDS011;69937;52.420;10.538;2024-03-22T03:37:26;22.38;;;12.05;;
80576;SDS011;69937;52.420;10.538;2024-03-22T03:42:27;26.35;;;13.35;;
80576;SDS011;69937;52.420;10.538;2024-03-22T03:47:27;25.20;;;12.75;;
80576;SDS011;69937;52.420;10.538;2024-03-22T03:52:28;24.33;;;12.40;;
80576;SDS011;69937;52.420;10.538;2024-03-22T03:57:28;22.65;;;14.38;;
80576;SDS011;69937;52.420;10.538;2024-03-22T04:02:29;23.98;;;11.43;;
80576;SDS011;69937;52.420;10.538;2024-03-22T04:07:29;25.92;;;13.32;;
80576;SDS011;69937;52.420;10.538;2024-03-22T04:12:30;22.08;;;12.63;;
80576;SDS011;69937;52.420;10.538;2024-03-22T04:17:31;22.90;;;12.15;;
80576;SDS011;69937;52.420;10.538;2024-03-22T04:22:32;24.85;;;11.00;;
80576;SDS011;69937;52.420;10.538;2024-03-22T04:27:35;26.80;;;11.90;;
80576;SDS011;69937;52.420;10.538;2024-03-22T04:32:36;24.55;;;13.20;;
80576;SDS011;69937;52.420;10.538;2024-03-22T04:37:36;23.60;;;12.82;;
80576;SDS011;69937;52.420;10.538;2024-03-22T04:42:37;21.23;;;12.82;;
80576;SDS011;69937;52.420;10.538;2024-03-22T04:47:38;25.80;;;13.73;;
80576;SDS011;69937;52.420;10.538;2024-03-22T04:52:40;25.10;;;12.55;;
80576;SDS011;69937;52.420;10.538;2024-03-22T04:57:41;23.17;;;12.02;;
80576;SDS011;69937;52.420;10.538;2024-03-22T05:02:41;25.20;;;13.82;;
80576;SDS011;69937;52.420;10.538;2024-03-22T05:07:42;27.67;;;14.35;;
80576;SDS011;69937;52.420;10.538;2024-03-22T05:12:43;24.27;;;13.20;;
80576;SDS011;69937;52.420;10.538;2024-03-22T05:17:43;24.25;;;12.77;;
80576;SDS011;69937;52.420;10.538;2024-03-22T05:22:44;24.35;;;12.73;;
80576;SDS011;69937;52.420;10.538;2024-03-22T05:27:44;29.30;;;13.20;;
80576;SDS011;69937;52.420;10.538;2024-03-22T05:32:45;25.35;;;12.05;;
80576;SDS011;69937;52.420;10.538;2024-03-22T05:37:46;27.77;;;14.82;;
80576;SDS011;69937;52.420;10.538;2024-03-22T05:42:48;20.45;;;12.02;;
80576;SDS011;69937;52.420;10.538;2024-03-22T05:47:48;30.67;;;13.18;;
80576;SDS011;69937;52.420;10.538;2024-03-22T05:52:49;20.25;;;11.70;;
80576;SDS011;69937;52.420;10.538;2024-03-22T05:57:50;21.63;;;11.85;;
80576;SDS011;69937;52.420;10.538;2024-03-22T06:02:50;25.95;;;12.73;;
80576;SDS011;69937;52.420;10.538;2024-03-22T06:07:51;19.55;;;10.82;;
80576;SDS011;69937;52.420;10.538;2024-03-22T06:12:51;21.58;;;12.88;;
80576;SDS011;69937;52.420;10.538;2024-03-22T06:17:52;28.08;;;12.80;;
80576;SDS011;69937;52.420;10.538;2024-03-22T06:22:53;18.05;;;9.63;;
80576;SDS011;69937;52.420;10.538;2024-03-22T06:27:53;23.73;;;11.57;;
80576;SDS011;69937;52.420;10.538;2024-03-22T06:32:54;23.42;;;11.88;;
80576;SDS011;69937;52.420;10.538;2024-03-22T06:37:54;32.60;;;12.30;;
80576;SDS011;69937;52.420;10.538;2024-03-22T06:42:55;25.00;;;13.15;;
80576;SDS011;69937;52.420;10.538;2024-03-22T06:47:56;24.38;;;11.85;;
80576;SDS011;69937;52.420;10.538;2024-03-22T06:52:57;25.73;;;13.30;;
80576;SDS011;69937;52.420;10.538;2024-03-22T06:57:57;26.48;;;12.38;;
80576;SDS011;69937;52.420;10.538;2024-03-22T07:02:58;35.47;;;14.85;;
80576;SDS011;69937;52.420;10.538;2024-03-22T07:08:02;32.95;;;14.68;;
80576;SDS011;69937;52.420;10.538;2024-03-22T07:13:02;25.48;;;12.05;;
80576;SDS011;69937;52.420;10.538;2024-03-22T07:18:03;21.80;;;13.18;;
80576;SDS011;69937;52.420;10.538;2024-03-22T07:23:04;25.83;;;12.40;;
80576;SDS011;69937;52.420;10.538;2024-03-22T07:28:05;22.30;;;11.65;;
80576;SDS011;69937;52.420;10.538;2024-03-22T07:33:05;25.50;;;12.75;;
80576;SDS011;69937;52.420;10.538;2024-03-22T07:38:06;27.63;;;12.40;;
80576;SDS011;69937;52.420;10.538;2024-03-22T07:43:07;26.42;;;12.60;;
80576;SDS011;69937;52.420;10.538;2024-03-22T07:48:08;22.23;;;10.20;;
80576;SDS011;69937;52.420;10.538;2024-03-22T07:53:08;23.23;;;11.32;;
80576;SDS011;69937;52.420;10.538;2024-03-22T07:58:09;23.52;;;12.50;;
80576;SDS011;69937;52.420;10.538;2024-03-22T08:03:13;23.35;;;11.52;;
80576;SDS011;69937;52.420;10.538;2024-03-22T08:13:15;20.60;;;10.20;;
80576;SDS011;69937;52.420;10.538;2024-03-22T08:18:16;22.48;;;10.68;;
80576;SDS011;69937;52.420;10.538;2024-03-22T08:23:17;23.38;;;11.98;;
80576;SDS011;69937;52.420;10.538;2024-03-22T08:28:20;27.92;;;13.48;;
80576;SDS011;69937;52.420;10.538;2024-03-22T08:33:20;24.63;;;12.63;;
80576;SDS011;69937;52.420;10.538;2024-03-22T08:38:21;27.52;;;12.30;;
80576;SDS011;69937;52.420;10.538;2024-03-22T08:43:23;27.30;;;12.93;;
80576;SDS011;69937;52.420;10.538;2024-03-22T08:48:25;27.00;;;13.32;;
80576;SDS011;69937;52.420;10.538;2024-03-22T08:53:26;27.15;;;13.15;;
80576;SDS011;69937;52.420;10.538;2024-03-22T08:58:26;24.23;;;11.55;;
80576;SDS011;69937;52.420;10.538;2024-03-22T09:03:27;20.77;;;10.63;;
80576;SDS011;69937;52.420;10.538;2024-03-22T09:08:28;21.35;;;10.75;;
80576;SDS011;69937;52.420;10.538;2024-03-22T09:13:29;22.05;;;11.02;;
80576;SDS011;69937;52.420;10.538;2024-03-22T09:18:30;21.65;;;11.68;;
80576;SDS011;69937;52.420;10.538;2024-03-22T09:23:31;20.67;;;10.57;;
80576;SDS011;69937;52.420;10.538;2024-03-22T09:28:32;25.33;;;10.02;;
80576;SDS011;69937;52.420;10.538;2024-03-22T09:33:33;20.35;;;9.95;;
80576;SDS011;69937;52.420;10.538;2024-03-22T09:38:34;22.23;;;10.77;;
80576;SDS011;69937;52.420;10.538;2024-03-22T09:43:34;22.50;;;9.90;;
80576;SDS011;69937;52.420;10.538;2024-03-22T09:48:35;21.08;;;10.27;;
80576;SDS011;69937;52.420;10.538;2024-03-22T09:53:36;22.83;;;11.55;;
80576;SDS011;69937;52.420;10.538;2024-03-22T09:58:38;19.65;;;10.02;;
80576;SDS011;69937;52.420;10.538;2024-03-22T10:03:39;18.40;;;10.10;;
80576;SDS011;69937;52.420;10.538;2024-03-22T10:08:40;25.08;;;9.82;;
80576;SDS011;69937;52.420;10.538;2024-03-22T10:13:40;19.75;;;9.82;;
80576;SDS011;69937;52.420;10.538;2024-03-22T10:18:41;18.10;;;8.63;;
80576;SDS011;69937;52.420;10.538;2024-03-22T10:23:42;20.30;;;10.23;;
80576;SDS011;69937;52.420;10.538;2024-03-22T10:28:44;17.38;;;9.45;;
80576;SDS011;69937;52.420;10.538;2024-03-22T10:33:46;17.63;;;9.23;;
80576;SDS011;69937;52.420;10.538;2024-03-22T10:38:48;17.42;;;8.55;;
80576;SDS011;69937;52.420;10.538;2024-03-22T10:43:51;18.45;;;8.63;;
80576;SDS011;69937;52.420;10.538;2024-03-22T10:48:53;18.08;;;8.20;;
80576;SDS011;69937;52.420;10.538;2024-03-22T10:53:55;19.08;;;9.32;;
80576;SDS011;69937;52.420;10.538;2024-03-22T10:59:02;17.60;;;8.25;;
80576;SDS011;69937;52.420;10.538;2024-03-22T11:04:04;15.70;;;8.60;;
80576;SDS011;69937;52.420;10.538;2024-03-22T11:09:09;17.30;;;8.27;;
80576;SDS011;69937;52.420;10.538;2024-03-22T11:14:10;18.35;;;8.40;;
80576;SDS011;69937;52.420;10.538;2024-03-22T11:19:11;13.75;;;7.35;;
80576;SDS011;69937;52.420;10.538;2024-03-22T11:24:12;14.35;;;7.47;;
80576;SDS011;69937;52.420;10.538;2024-03-22T11:29:14;15.43;;;8.27;;
80576;SDS011;69937;52.420;10.538;2024-03-22T11:34:14;14.43;;;7.90;;
80576;SDS011;69937;52.420;10.538;2024-03-22T11:39:15;14.60;;;8.18;;
80576;SDS011;69937;52.420;10.538;2024-03-22T11:44:16;15.27;;;7.72;;
80576;SDS011;69937;52.420;10.538;2024-03-22T11:49:18;14.10;;;7.43;;
80576;SDS011;69937;52.420;10.538;2024-03-22T11:54:19;17.70;;;7.03;;
80576;SDS011;69937;52.420;10.538;2024-03-22T11:59:20;14.23;;;7.80;;
80576;SDS011;69937;52.420;10.538;2024-03-22T12:04:22;12.32;;;7.20;;
80576;SDS011;69937;52.420;10.538;2024-03-22T12:09:22;10.00;;;6.38;;
80576;SDS011;69937;52.420;10.538;2024-03-22T12:14:23;13.60;;;6.50;;
80576;SDS011;69937;52.420;10.538;2024-03-22T12:19:24;11.48;;;6.10;;
80576;SDS011;69937;52.420;10.538;2024-03-22T12:24:25;20.88;;;6.65;;
80576;SDS011;69937;52.420;10.538;2024-03-22T12:29:27;11.98;;;6.65;;
80576;SDS011;69937;52.420;10.538;2024-03-22T12:34:27;12.07;;;6.95;;
80576;SDS011;69937;52.420;10.538;2024-03-22T12:39:32;13.70;;;7.55;;
80576;SDS011;69937;52.420;10.538;2024-03-22T12:44:33;13.10;;;6.95;;
80576;SDS011;69937;52.420;10.538;2024-03-22T12:49:34;13.05;;;8.00;;
80576;SDS011;69937;52.420;10.538;2024-03-22T12:54:34;14.32;;;7.85;;
80576;SDS011;69937;52.420;10.538;2024-03-22T12:59:35;16.75;;;8.45;;
80576;SDS011;69937;52.420;10.538;2024-03-22T13:04:36;17.08;;;8.98;;
80576;SDS011;69937;52.420;10.538;2024-03-22T13:09:36;15.30;;;8.80;;
80576;SDS011;69937;52.420;10.538;2024-03-22T13:14:37;18.10;;;8.85;;
80576;SDS011;69937;52.420;10.538;2024-03-22T13:19:37;15.68;;;8.68;;
80576;SDS011;69937;52.420;10.538;2024-03-22T13:24:38;19.13;;;9.50;;
80576;SDS011;69937;52.420;10.538;2024-03-22T13:29:39;20.48;;;9.68;;
80576;SDS011;69937;52.420;10.538;2024-03-22T13:34:40;20.35;;;10.50;;
80576;SDS011;69937;52.420;10.538;2024-03-22T13:39:42;21.00;;;9.48;;
80576;SDS011;69937;52.420;10.538;2024-03-22T13:44:43;15.77;;;10.25;;
80576;SDS011;69937;52.420;10.538;2024-03-22T13:49:43;21.48;;;11.32;;
80576;SDS011;69937;52.420;10.538;2024-03-22T13:54:44;20.13;;;11.43;;
80576;SDS011;69937;52.420;10.538;2024-03-22T13:59:45;27.13;;;12.43;;
80576;SDS011;69937;52.420;10.538;2024-03-22T14:04:47;25.67;;;12.82;;
80576;SDS011;69937;52.420;10.538;2024-03-22T14:09:47;20.85;;;11.60;;
80576;SDS011;69937;52.420;10.538;2024-03-22T14:14:48;20.65;;;11.45;;
80576;SDS011;69937;52.420;10.538;2024-03-22T14:19:48;18.48;;;10.18;;
80576;SDS011;69937;52.420;10.538;2024-03-22T14:24:49;19.35;;;11.10;;
80576;SDS011;69937;52.420;10.538;2024-03-22T14:29:50;17.60;;;9.13;;
80576;SDS011;69937;52.420;10.538;2024-03-22T14:34:52;16.88;;;9.40;;
80576;SDS011;69937;52.420;10.538;2024-03-22T14:39:52;13.65;;;8.75;;
80576;SDS011;69937;52.420;10.538;2024-03-22T14:44:53;11.38;;;7.57;;
80576;SDS011;69937;52.420;10.538;2024-03-22T14:49:55;14.00;;;8.32;;
80576;SDS011;69937;52.420;10.538;2024-03-22T14:54:56;12.30;;;8.38;;
80576;SDS011;69937;52.420;10.538;2024-03-22T14:59:57;11.15;;;7.22;;
80576;SDS011;69937;52.420;10.538;2024-03-22T15:04:57;10.27;;;7.38;;
80576;SDS011;69937;52.420;10.538;2024-03-22T15:09:58;13.55;;;9.00;;
80576;SDS011;69937;52.420;10.538;2024-03-22T15:14:58;16.33;;;8.02;;
80576;SDS011;69937;52.420;10.538;2024-03-22T15:20:00;17.65;;;9.23;;
80576;SDS011;69937;52.420;10.538;2024-03-22T15:25:00;17.98;;;9.25;;
80576;SDS011;69937;52.420;10.538;2024-03-22T15:30:01;16.15;;;9.68;;
80576;SDS011;69937;52.420;10.538;2024-03-22T15:35:02;17.83;;;9.90;;
80576;SDS011;69937;52.420;10.538;2024-03-22T15:40:03;17.92;;;10.07;;
80576;SDS011;69937;52.420;10.538;2024-03-22T15:45:09;14.23;;;9.52;;
80576;SDS011;69937;52.420;10.538;2024-03-22T15:50:10;14.35;;;8.52;;
80576;SDS011;69937;52.420;10.538;2024-03-22T15:55:10;12.88;;;7.78;;
80576;SDS011;69937;52.420;10.538;2024-03-22T16:00:11;13.75;;;8.00;;
80576;SDS011;69937;52.420;10.538;2024-03-22T16:05:12;13.55;;;8.70;;
80576;SDS011;69937;52.420;10.538;2024-03-22T16:10:12;12.85;;;9.10;;
80576;SDS011;69937;52.420;10.538;2024-03-22T16:15:13;13.20;;;8.07;;
80576;SDS011;69937;52.420;10.538;2024-03-22T16:20:14;13.48;;;8.05;;
80576;SDS011;69937;52.420;10.538;2024-03-22T16:25:14;13.25;;;8.20;;
80576;SDS011;69937;52.420;10.538;2024-03-22T16:30:15;12.65;;;7.65;;
80576;SDS011;69937;52.420;10.538;2024-03-22T16:35:17;15.90;;;8.38;;
80576;SDS011;69937;52.420;10.538;2024-03-22T16:40:19;13.38;;;8.85;;
80576;SDS011;69937;52.420;10.538;2024-03-22T16:45:20;16.08;;;8.52;;
80576;SDS011;69937;52.420;10.538;2024-03-22T16:50:20;13.77;;;9.13;;
80576;SDS011;69937;52.420;10.538;2024-03-22T16:55:21;15.45;;;9.27;;
80576;SDS011;69937;52.420;10.538;2024-03-22T17:00:24;13.30;;;8.35;;
80576;SDS011;69937;52.420;10.538;2024-03-22T17:05:25;12.18;;;7.60;;
80576;SDS011;69937;52.420;10.538;2024-03-22T17:10:25;12.68;;;8.68;;
80576;SDS011;69937;52.420;10.538;2024-03-22T17:15:26;13.15;;;8.38;;
80576;SDS011;69937;52.420;10.538;2024-03-22T17:20:27;14.15;;;7.20;;
80576;SDS011;69937;52.420;10.538;2024-03-22T17:25:28;11.68;;;7.10;;
80576;SDS011;69937;52.420;10.538;2024-03-22T17:30:29;14.60;;;8.00;;
80576;SDS011;69937;52.420;10.538;2024-03-22T17:35:30;13.35;;;7.63;;
80576;SDS011;69937;52.420;10.538;2024-03-22T17:40:30;11.43;;;6.95;;
80576;SDS011;69937;52.420;10.538;2024-03-22T17:45:32;15.68;;;7.50;;
80576;SDS011;69937;52.420;10.538;2024-03-22T17:50:32;11.73;;;7.68;;
80576;SDS011;69937;52.420;10.538;2024-03-22T17:55:33;14.95;;;8.68;;
80576;SDS011;69937;52.420;10.538;2024-03-22T18:00:33;11.80;;;8.30;;
80576;SDS011;69937;52.420;10.538;2024-03-22T18:05:34;16.08;;;9.40;;
80576;SDS011;69937;52.420;10.538;2024-03-22T18:10:35;16.65;;;10.88;;
80576;SDS011;69937;52.420;10.538;2024-03-22T18:15:38;13.32;;;8.95;;
80576;SDS011;69937;52.420;10.538;2024-03-22T18:20:39;16.48;;;8.38;;
80576;SDS011;69937;52.420;10.538;2024-03-22T18:25:40;16.63;;;9.30;;
80576;SDS011;69937;52.420;10.538;2024-03-22T18:30:41;15.88;;;8.85;;
80576;SDS011;69937;52.420;10.538;2024-03-22T18:35:42;13.23;;;8.52;;
80576;SDS011;69937;52.420;10.538;2024-03-22T18:40:43;17.45;;;9.48;;
80576;SDS011;69937;52.420;10.538;2024-03-22T18:45:44;20.73;;;9.63;;
80576;SDS011;69937;52.420;10.538;2024-03-22T18:50:44;14.70;;;8.48;;
80576;SDS011;69937;52.420;10.538;2024-03-22T18:55:47;12.65;;;7.80;;
80576;SDS011;69937;52.420;10.538;2024-03-22T19:00:48;14.25;;;7.78;;
80576;SDS011;69937;52.420;10.538;2024-03-22T19:05:48;11.77;;;7.70;;
80576;SDS011;69937;52.420;10.538;2024-03-22T19:10:49;12.82;;;7.30;;
80576;SDS011;69937;52.420;10.538;2024-03-22T19:15:54;9.90;;;4.72;;
80576;SDS011;69937;52.420;10.538;2024-03-22T19:20:55;5.53;;;3.17;;
80576;SDS011;69937;52.420;10.538;2024-03-22T19:25:56;5.53;;;3.38;;
80576;SDS011;69937;52.420;10.538;2024-03-22T19:30:56;3.72;;;3.30;;
80576;SDS011;69937;52.420;10.538;2024-03-22T19:35:57;4.18;;;3.22;;
80576;SDS011;69937;52.420;10.538;2024-03-22T19:41:00;3.15;;;2.72;;
80576;SDS011;69937;52.420;10.538;2024-03-22T19:46:01;6.13;;;2.53;;
80576;SDS011;69937;52.420;10.538;2024-03-22T19:51:02;4.72;;;3.45;;
80576;SDS011;69937;52.420;10.538;2024-03-22T19:56:06;5.55;;;3.20;;
80576;SDS011;69937;52.420;10.538;2024-03-22T20:01:07;2.90;;;2.65;;
80576;SDS011;69937;52.420;10.538;2024-03-22T20:06:08;3.58;;;3.28;;
80576;SDS011;69937;52.420;10.538;2024-03-22T20:11:08;3.58;;;3.20;;
80576;SDS011;69937;52.420;10.538;2024-03-22T20:16:09;5.22;;;3.20;;
80576;SDS011;69937;52.420;10.538;2024-03-22T20:21:10;4.18;;;3.40;;
80576;SDS011;69937;52.420;10.538;2024-03-22T20:26:10;4.05;;;3.50;;
80576;SDS011;69937;52.420;10.538;2024-03-22T20:31:11;5.10;;;3.80;;
80576;SDS011;69937;52.420;10.538;2024-03-22T20:36:14;4.13;;;3.65;;
